Time;durP1;ratioP1;P1;durP2;ratioP2;P2;SDS_P1;SDS_P2;PMS_P1;PMS_P2;Temp;Humidity;BMP_temperature;BMP_pressure;BME280_temperature;BME280_humidity;BME280_pressure;Samples;Min_cycle;Max_cycle;Signal;HPM_P1;HPM_P2
2022/11/13 00:00:09;;;;;;;1.23;1.13;;;19.30;52.50;;;;;;5113179;28;20124;-11
2022/11/13 00:02:53;;;;;;;1.10;1.00;;;19.30;52.00;;;;;;5113350;28;20070;-11
2022/11/13 00:05:36;;;;;;;1.15;1.05;;;19.40;52.00;;;;;;5113424;28;20062;-11
2022/11/13 00:08:21;;;;;;;1.30;1.20;;;19.30;51.90;;;;;;5112678;28;20055;-11
2022/11/13 00:11:08;;;;;;;0.90;0.90;;;19.40;51.90;;;;;;5113615;28;20055;-11
2022/11/13 00:13:52;;;;;;;0.93;0.93;;;19.30;51.90;;;;;;5112936;28;20545;-11
2022/11/13 00:16:36;;;;;;;1.30;1.20;;;19.40;51.90;;;;;;5112969;28;20120;-11
2022/11/13 00:19:21;;;;;;;1.85;1.10;;;19.40;51.90;;;;;;5109639;28;20073;-11
2022/11/13 00:22:05;;;;;;;1.10;1.00;;;19.40;51.80;;;;;;5113495;28;20054;-11
2022/11/13 00:24:49;;;;;;;1.00;1.00;;;19.40;51.90;;;;;;5113152;28;20189;-11
2022/11/13 00:27:33;;;;;;;1.40;1.30;;;19.40;51.90;;;;;;5112972;28;20415;-11
2022/11/13 00:30:17;;;;;;;1.15;1.05;;;19.30;51.90;;;;;;5112569;28;20055;-11
2022/11/13 00:33:01;;;;;;;1.20;1.10;;;19.30;51.90;;;;;;5112737;28;20094;-11
2022/11/13 00:35:45;;;;;;;0.88;0.88;;;19.30;52.00;;;;;;5112679;28;20066;-11
2022/11/13 00:38:29;;;;;;;1.20;1.10;;;19.30;52.00;;;;;;5112577;28;20058;-11
2022/11/13 00:41:14;;;;;;;1.25;1.15;;;19.30;52.00;;;;;;5112986;28;20121;-11
2022/11/13 00:43:59;;;;;;;1.08;1.00;;;19.30;52.10;;;;;;5112830;28;20398;-11
2022/11/13 00:46:43;;;;;;;1.30;1.20;;;19.30;52.10;;;;;;5112342;28;20192;-11
2022/11/13 00:49:27;;;;;;;1.20;1.10;;;19.30;52.10;;;;;;5112774;28;20100;-11
2022/11/13 00:52:11;;;;;;;1.23;1.10;;;19.30;52.10;;;;;;5112501;28;20093;-11
2022/11/13 00:54:55;;;;;;;1.30;1.20;;;19.30;52.10;;;;;;5112826;28;20142;-11
2022/11/13 00:57:39;;;;;;;1.25;1.15;;;19.30;52.10;;;;;;5112553;28;20061;-11
2022/11/13 01:00:24;;;;;;;1.25;1.15;;;19.30;52.20;;;;;;5112466;28;20469;-11
2022/11/13 01:03:08;;;;;;;0.95;0.95;;;19.20;52.10;;;;;;5112728;28;20478;-11
2022/11/13 01:05:52;;;;;;;1.20;1.10;;;19.30;52.10;;;;;;5112592;28;20107;-11
2022/11/13 01:08:36;;;;;;;1.40;1.30;;;19.30;52.10;;;;;;5112574;28;20062;-11
2022/11/13 01:11:23;;;;;;;1.05;0.95;;;19.30;52.10;;;;;;5112458;28;20097;-11
2022/11/13 01:14:08;;;;;;;1.23;1.13;;;19.30;52.10;;;;;;5116075;28;20066;-11
2022/11/13 01:16:52;;;;;;;1.20;1.10;;;19.30;52.10;;;;;;5115646;28;20082;-11
2022/11/13 01:19:37;;;;;;;1.30;0.90;;;19.30;52.10;;;;;;5115876;28;20058;-11
2022/11/13 01:22:21;;;;;;;1.15;1.05;;;19.30;52.00;;;;;;5115963;28;20062;-11
2022/11/13 01:25:06;;;;;;;1.27;1.17;;;19.30;51.90;;;;;;5115516;28;20100;-11
2022/11/13 01:27:50;;;;;;;1.58;1.25;;;19.30;51.80;;;;;;5115663;28;20120;-11
2022/11/13 01:30:34;;;;;;;1.30;1.20;;;19.40;51.80;;;;;;5115560;28;20133;-11
2022/11/13 01:33:18;;;;;;;1.20;1.10;;;19.30;51.70;;;;;;5115741;28;20150;-11
2022/11/13 01:36:09;;;;;;;1.40;1.30;;;19.30;51.80;;;;;;5115434;28;20108;-11
2022/11/13 01:38:53;;;;;;;1.25;1.15;;;19.40;51.70;;;;;;5115632;28;20104;-11
2022/11/13 01:41:39;;;;;;;1.15;1.08;;;19.40;52.20;;;;;;5115524;28;20067;-11
2022/11/13 01:44:23;;;;;;;0.93;0.93;;;19.40;51.60;;;;;;5115635;28;20078;-11
2022/11/13 01:47:08;;;;;;;1.20;1.10;;;19.40;51.70;;;;;;5115515;28;20059;-11
2022/11/13 01:49:55;;;;;;;1.10;1.10;;;19.40;51.70;;;;;;5115263;28;20143;-11
2022/11/13 01:52:41;;;;;;;1.00;0.90;;;19.40;51.60;;;;;;5115107;28;20588;-11
2022/11/13 01:55:25;;;;;;;1.92;1.13;;;19.40;51.60;;;;;;5115437;28;20507;-11
2022/11/13 01:58:11;;;;;;;0.90;0.90;;;19.40;51.60;;;;;;5115025;28;20514;-11
2022/11/13 02:00:55;;;;;;;1.27;1.17;;;19.40;51.60;;;;;;5115042;28;20146;-11
2022/11/13 02:03:39;;;;;;;1.20;1.10;;;19.40;51.60;;;;;;5115045;28;20525;-11
2022/11/13 02:06:26;;;;;;;1.15;0.98;;;19.40;51.60;;;;;;5115200;28;20086;-11
2022/11/13 02:09:14;;;;;;;1.10;1.00;;;19.40;51.70;;;;;;5114881;28;20101;-11
2022/11/13 02:11:59;;;;;;;1.20;1.10;;;19.40;51.70;;;;;;5114973;28;20059;-11
2022/11/13 02:14:48;;;;;;;0.88;0.88;;;19.40;51.60;;;;;;5115150;28;20062;-11
2022/11/13 02:18:06;;;;;;;1.27;1.17;;;19.30;51.70;;;;;;5114820;28;20112;-11
2022/11/13 02:21:16;;;;;;;1.10;1.00;;;19.30;51.80;;;;;;5103661;28;20097;-11
2022/11/13 02:24:26;;;;;;;0.98;0.98;;;19.30;51.90;;;;;;5114552;28;20066;-11
2022/11/13 02:27:26;;;;;;;2.50;1.08;;;19.30;51.90;;;;;;5114873;28;20427;-11
2022/11/13 02:30:22;;;;;;;1.10;1.00;;;19.30;52.00;;;;;;5114561;28;20457;-11
2022/11/13 02:33:20;;;;;;;1.20;1.10;;;19.20;52.00;;;;;;5114473;28;20149;-11
2022/11/13 02:36:06;;;;;;;1.00;0.95;;;19.20;52.00;;;;;;5114981;28;20051;-11
2022/11/13 02:38:53;;;;;;;1.38;0.90;;;19.20;52.10;;;;;;5114825;28;20569;-11
2022/11/13 02:41:38;;;;;;;1.35;1.25;;;19.20;52.10;;;;;;5114445;28;20055;-11
2022/11/13 02:44:22;;;;;;;1.25;1.15;;;19.20;52.60;;;;;;5114669;28;20070;-11
2022/11/13 02:47:06;;;;;;;1.42;1.33;;;19.20;52.10;;;;;;5114352;28;20485;-11
2022/11/13 02:49:50;;;;;;;1.20;1.10;;;19.20;52.00;;;;;;5110755;28;20157;-11
2022/11/13 02:52:34;;;;;;;1.45;1.27;;;19.30;52.00;;;;;;5114330;28;20121;-11
2022/11/13 02:55:18;;;;;;;1.08;0.98;;;19.20;52.00;;;;;;5114447;28;20161;-11
2022/11/13 02:58:02;;;;;;;1.05;0.95;;;19.30;52.00;;;;;;5114255;28;20146;-11
2022/11/13 03:00:46;;;;;;;1.30;1.05;;;19.30;52.00;;;;;;5114054;28;20078;-11
2022/11/13 03:03:31;;;;;;;1.67;1.30;;;19.20;51.90;;;;;;5114072;28;20549;-11
2022/11/13 03:06:15;;;;;;;1.25;1.15;;;19.20;51.80;;;;;;5114304;28;21035;-11
2022/11/13 03:08:59;;;;;;;1.02;1.02;;;19.30;51.90;;;;;;5113735;28;20556;-11
2022/11/13 03:11:44;;;;;;;1.25;1.10;;;19.30;51.90;;;;;;5111374;28;20074;-11
2022/11/13 03:14:27;;;;;;;1.27;1.13;;;19.30;51.80;;;;;;5114172;28;20055;-11
2022/11/13 03:17:12;;;;;;;1.23;1.02;;;19.30;51.80;;;;;;5113488;28;20080;-11
2022/11/13 03:19:56;;;;;;;1.17;1.08;;;19.30;51.70;;;;;;5110738;28;20054;-11
2022/11/13 03:22:40;;;;;;;1.48;1.20;;;19.30;51.80;;;;;;5114025;28;20097;-11
2022/11/13 03:25:23;;;;;;;1.40;1.30;;;19.30;51.80;;;;;;5114017;28;20453;-11
2022/11/13 03:28:08;;;;;;;1.30;1.17;;;19.20;51.80;;;;;;5113633;28;20108;-11
2022/11/13 03:30:51;;;;;;;1.38;1.25;;;19.20;51.90;;;;;;5113629;28;20058;-11
2022/11/13 03:33:36;;;;;;;1.20;1.10;;;19.20;51.80;;;;;;5113503;28;20104;-11
2022/11/13 03:36:20;;;;;;;1.35;1.02;;;19.20;51.90;;;;;;5113274;28;20124;-11
2022/11/13 03:39:04;;;;;;;1.20;1.10;;;19.20;51.90;;;;;;5113419;28;20063;-11
2022/11/13 03:41:48;;;;;;;1.38;1.15;;;19.30;51.90;;;;;;5113396;28;20059;-11
2022/11/13 03:44:32;;;;;;;1.02;1.02;;;19.20;51.90;;;;;;5113383;28;20080;-11
2022/11/13 03:47:16;;;;;;;1.20;1.10;;;19.30;51.90;;;;;;5112954;28;20106;-11
2022/11/13 03:50:01;;;;;;;0.93;0.90;;;19.20;51.90;;;;;;5113614;28;20101;-11
2022/11/13 03:52:44;;;;;;;1.75;1.25;;;19.30;51.90;;;;;;5113384;28;20502;-11
2022/11/13 03:55:29;;;;;;;1.38;1.27;;;19.30;51.90;;;;;;5113299;28;20057;-11
2022/11/13 03:58:13;;;;;;;1.20;1.10;;;19.30;51.80;;;;;;5113467;28;20066;-11
2022/11/13 04:00:58;;;;;;;1.20;1.10;;;19.30;51.70;;;;;;5113219;28;20059;-11
2022/11/13 04:03:42;;;;;;;1.30;1.20;;;19.30;51.70;;;;;;5113496;28;20129;-11
2022/11/13 04:06:26;;;;;;;1.33;1.23;;;19.30;51.60;;;;;;5113109;28;20063;-11
2022/11/13 04:09:11;;;;;;;1.40;1.30;;;19.30;51.60;;;;;;5113266;28;20054;-11
2022/11/13 04:11:55;;;;;;;1.08;1.00;;;19.30;51.50;;;;;;5113212;28;20058;-11
2022/11/13 04:14:39;;;;;;;1.42;1.33;;;19.40;51.50;;;;;;5111273;28;20070;-11
2022/11/13 04:17:24;;;;;;;1.30;1.20;;;19.40;51.50;;;;;;5113193;28;20078;-11
2022/11/13 04:20:09;;;;;;;1.40;1.30;;;19.40;51.50;;;;;;5112997;28;20081;-11
2022/11/13 04:22:55;;;;;;;1.52;1.23;;;19.40;51.50;;;;;;5112827;28;20081;-11
2022/11/13 04:25:39;;;;;;;1.35;1.25;;;19.40;51.50;;;;;;5110926;28;20510;-11
2022/11/13 04:28:23;;;;;;;1.30;1.20;;;19.40;51.40;;;;;;5110157;28;20062;-11
2022/11/13 04:31:07;;;;;;;1.27;1.17;;;19.40;51.50;;;;;;5112878;28;20502;-11
2022/11/13 04:33:51;;;;;;;1.10;1.00;;;19.40;51.90;;;;;;5112882;28;20059;-11
2022/11/13 04:36:35;;;;;;;1.00;1.00;;;19.40;51.40;;;;;;5113328;28;20055;-11
2022/11/13 04:39:20;;;;;;;1.50;1.20;;;19.40;51.40;;;;;;5113101;28;20058;-11
2022/11/13 04:45:08;;;;;;;1.30;1.20;;;19.40;51.40;;;;;;5112629;28;20096;-11
2022/11/13 04:47:53;;;;;;;1.50;1.40;;;19.40;51.40;;;;;;5115371;28;20063;-11
2022/11/13 04:50:37;;;;;;;1.50;1.40;;;19.40;51.30;;;;;;5116453;28;20045;-11
2022/11/13 04:53:21;;;;;;;1.42;1.30;;;19.40;51.30;;;;;;5116075;28;20070;-11
2022/11/13 04:56:05;;;;;;;1.15;1.10;;;19.40;51.30;;;;;;5116714;28;20054;-11
2022/11/13 04:58:49;;;;;;;1.30;1.20;;;19.40;51.30;;;;;;5115797;28;20518;-11
2022/11/13 05:01:35;;;;;;;1.45;1.15;;;19.40;51.30;;;;;;5116156;28;20086;-11
2022/11/13 05:04:19;;;;;;;1.10;1.00;;;19.40;51.30;;;;;;5116272;28;20055;-11
2022/11/13 05:07:03;;;;;;;1.10;1.00;;;19.40;51.30;;;;;;5115549;28;20182;-11
2022/11/13 05:09:47;;;;;;;1.35;1.25;;;19.40;51.30;;;;;;5100329;28;20054;-11
2022/11/13 05:12:31;;;;;;;1.40;1.30;;;19.40;51.30;;;;;;5115972;28;20058;-11
2022/11/13 05:15:16;;;;;;;1.52;1.42;;;19.40;51.30;;;;;;5115757;28;20096;-11
2022/11/13 05:18:00;;;;;;;1.10;1.00;;;19.40;51.30;;;;;;5115607;28;20154;-11
2022/11/13 05:20:45;;;;;;;1.35;1.25;;;19.40;51.30;;;;;;5115996;28;20517;-11
2022/11/13 05:23:29;;;;;;;1.50;1.40;;;19.40;51.20;;;;;;5115728;28;20415;-11
2022/11/13 05:26:13;;;;;;;1.33;1.23;;;19.40;51.20;;;;;;5115918;28;20463;-11
2022/11/13 05:29:00;;;;;;;1.60;1.42;;;19.40;51.20;;;;;;5115575;28;20070;-11
2022/11/13 05:31:44;;;;;;;1.50;1.10;;;19.40;51.20;;;;;;5115414;28;20054;-11
2022/11/13 05:34:29;;;;;;;1.20;1.10;;;19.40;51.20;;;;;;5116057;28;20062;-11
2022/11/13 05:37:13;;;;;;;1.23;1.13;;;19.40;51.20;;;;;;5115734;28;20148;-11
2022/11/13 05:39:57;;;;;;;1.20;1.10;;;19.40;51.20;;;;;;5115449;28;20202;-11
2022/11/13 05:42:41;;;;;;;1.15;1.08;;;19.40;51.20;;;;;;5115655;28;20097;-11
2022/11/13 05:45:25;;;;;;;1.30;1.20;;;19.40;51.20;;;;;;5115387;28;20528;-11
2022/11/13 05:48:09;;;;;;;1.15;1.05;;;19.40;51.20;;;;;;5115081;28;20148;-11
2022/11/13 05:50:54;;;;;;;1.38;1.27;;;19.40;51.10;;;;;;5115133;28;20522;-11
2022/11/13 05:53:39;;;;;;;1.30;1.20;;;19.50;51.10;;;;;;5115099;28;20620;-11
2022/11/13 05:56:29;;;;;;;1.30;1.20;;;19.50;51.10;;;;;;5115199;28;20097;-10
2022/11/13 05:59:14;;;;;;;1.02;1.02;;;19.50;51.10;;;;;;5115061;28;20404;-11
2022/11/13 06:01:58;;;;;;;1.27;1.20;;;19.50;51.10;;;;;;5115369;28;20463;-11
2022/11/13 06:04:42;;;;;;;1.25;1.17;;;19.50;51.10;;;;;;5115010;28;20502;-11
2022/11/13 06:07:27;;;;;;;1.17;1.08;;;19.50;51.10;;;;;;5114717;28;20127;-11
2022/11/13 06:10:12;;;;;;;1.52;1.27;;;19.50;51.10;;;;;;5115234;28;20058;-11
2022/11/13 06:12:56;;;;;;;1.40;1.30;;;19.50;51.10;;;;;;5114771;28;20093;-11
2022/11/13 06:15:40;;;;;;;1.40;1.30;;;19.50;51.00;;;;;;5114869;28;20117;-11
2022/11/13 06:18:24;;;;;;;1.25;1.17;;;19.50;51.10;;;;;;5114780;28;20054;-11
2022/11/13 06:21:12;;;;;;;1.20;1.10;;;19.50;51.00;;;;;;5114686;28;20120;-11
2022/11/13 06:23:59;;;;;;;1.33;1.20;;;19.50;51.00;;;;;;5114973;28;20147;-11
2022/11/13 06:26:43;;;;;;;0.90;0.90;;;19.50;51.00;;;;;;5114948;28;20059;-11
2022/11/13 06:29:27;;;;;;;1.20;1.10;;;19.50;51.00;;;;;;5114629;28;20086;-11
2022/11/13 06:32:11;;;;;;;1.90;1.40;;;19.50;51.00;;;;;;5114730;28;20066;-11
2022/11/13 06:34:55;;;;;;;1.35;1.25;;;19.50;50.90;;;;;;5114547;28;20506;-11
2022/11/13 06:37:39;;;;;;;1.05;1.05;;;19.50;50.90;;;;;;5114485;28;20063;-11
2022/11/13 06:40:23;;;;;;;1.55;1.45;;;19.50;50.90;;;;;;5114537;28;20100;-11
2022/11/13 06:43:07;;;;;;;1.40;1.30;;;19.50;50.90;;;;;;5111532;28;20058;-11
2022/11/13 06:45:52;;;;;;;1.23;1.10;;;19.50;50.90;;;;;;5114629;28;20185;-11
2022/11/13 06:48:36;;;;;;;1.38;1.27;;;19.50;50.90;;;;;;5114812;28;20117;-11
2022/11/13 06:51:29;;;;;;;1.45;1.35;;;19.50;50.90;;;;;;5114307;28;20088;-11
2022/11/13 06:54:13;;;;;;;2.10;1.50;;;19.50;50.80;;;;;;5114500;28;20082;-11
2022/11/13 06:56:57;;;;;;;1.10;1.00;;;19.50;50.80;;;;;;5114210;28;20112;-11
2022/11/13 06:59:42;;;;;;;1.30;1.20;;;19.60;50.90;;;;;;5114165;28;20461;-11
2022/11/13 07:02:26;;;;;;;1.35;1.25;;;19.60;50.80;;;;;;5114035;28;20094;-11
2022/11/13 07:05:10;;;;;;;1.35;1.20;;;19.60;50.70;;;;;;5114350;28;20058;-11
2022/11/13 07:07:54;;;;;;;1.48;1.38;;;19.60;50.60;;;;;;5110699;28;20067;-11
2022/11/13 07:10:39;;;;;;;1.20;1.10;;;19.70;50.60;;;;;;5113311;28;20054;-11
2022/11/13 07:13:24;;;;;;;1.05;1.02;;;19.70;50.60;;;;;;5113904;28;20054;-11
2022/11/13 07:16:10;;;;;;;1.20;1.10;;;19.70;50.50;;;;;;5114150;28;20399;-11
2022/11/13 07:18:54;;;;;;;1.20;1.10;;;19.70;50.50;;;;;;5113829;28;20116;-11
2022/11/13 07:21:38;;;;;;;1.90;1.67;;;19.80;50.40;;;;;;5113807;28;20415;-11
2022/11/13 07:24:22;;;;;;;1.33;1.23;;;19.80;50.30;;;;;;5114064;28;20146;-11
2022/11/13 07:27:07;;;;;;;1.30;1.20;;;19.80;50.30;;;;;;5113921;28;20059;-11
2022/11/13 07:29:51;;;;;;;1.40;1.30;;;19.80;50.40;;;;;;5113941;28;20514;-11
2022/11/13 07:32:36;;;;;;;1.20;1.10;;;19.80;50.40;;;;;;5113825;28;20062;-11
2022/11/13 07:35:20;;;;;;;1.00;1.00;;;19.70;50.40;;;;;;5113607;28;20062;-11
2022/11/13 07:38:04;;;;;;;1.42;1.23;;;19.70;50.40;;;;;;5113497;28;20058;-11
2022/11/13 07:40:49;;;;;;;1.15;1.05;;;19.70;50.40;;;;;;5113844;28;20580;-11
2022/11/13 07:43:34;;;;;;;1.00;1.00;;;19.70;50.40;;;;;;5113728;28;20089;-11
2022/11/13 07:46:18;;;;;;;2.25;1.27;;;19.70;50.40;;;;;;5113443;28;20062;-11
2022/11/13 07:49:02;;;;;;;1.58;1.48;;;19.80;50.40;;;;;;5113040;28;20049;-11
2022/11/13 07:51:48;;;;;;;1.23;1.13;;;19.80;50.30;;;;;;5113853;28;20050;-11
2022/11/13 07:54:32;;;;;;;1.40;1.30;;;19.80;50.30;;;;;;5113303;28;20063;-11
2022/11/13 07:57:16;;;;;;;1.25;1.15;;;19.80;50.30;;;;;;5113084;28;20066;-11
2022/11/13 08:00:00;;;;;;;1.55;1.33;;;19.80;50.20;;;;;;5113531;28;20058;-11
2022/11/13 08:02:46;;;;;;;1.20;1.17;;;19.80;50.20;;;;;;5113551;28;20086;-11
2022/11/13 08:05:30;;;;;;;1.20;1.15;;;19.80;50.10;;;;;;5113480;28;20094;-11
2022/11/13 08:08:15;;;;;;;1.27;1.17;;;19.80;50.20;;;;;;5112845;28;20061;-11
2022/11/13 08:11:07;;;;;;;1.40;1.30;;;19.80;50.20;;;;;;5113123;28;20076;-11
2022/11/13 08:13:52;;;;;;;1.20;1.10;;;19.80;50.30;;;;;;5113345;28;20090;-11
2022/11/13 08:16:36;;;;;;;1.33;1.23;;;19.80;50.20;;;;;;5113104;28;20128;-11
2022/11/13 08:19:22;;;;;;;1.40;1.30;;;19.80;50.30;;;;;;5113294;28;20510;-11
2022/11/13 08:22:06;;;;;;;1.20;1.10;;;19.80;50.30;;;;;;5113088;28;20131;-11
2022/11/13 08:24:52;;;;;;;1.35;1.25;;;19.80;50.30;;;;;;5116608;28;20050;-11
2022/11/13 08:27:37;;;;;;;1.45;1.35;;;19.80;50.30;;;;;;5117105;28;20144;-11
2022/11/13 08:30:22;;;;;;;1.15;1.05;;;19.80;50.20;;;;;;5116511;28;20095;-11
2022/11/13 08:33:06;;;;;;;1.50;1.38;;;19.80;50.20;;;;;;5112666;28;20498;-11
2022/11/13 08:36:00;;;;;;;1.20;1.10;;;19.80;50.20;;;;;;5116477;28;20066;-11
2022/11/13 08:38:44;;;;;;;1.40;1.30;;;19.80;50.20;;;;;;5114400;28;20108;-11
2022/11/13 08:41:28;;;;;;;1.77;1.30;;;19.80;50.20;;;;;;5116174;28;20128;-11
2022/11/13 08:44:13;;;;;;;1.27;1.17;;;19.80;50.20;;;;;;5116870;28;20403;-11
2022/11/13 08:46:57;;;;;;;1.30;1.05;;;19.80;50.20;;;;;;5116552;28;20059;-11
2022/11/13 08:49:42;;;;;;;1.25;1.15;;;19.80;50.30;;;;;;5116097;28;20176;-10
2022/11/13 08:52:26;;;;;;;1.45;1.35;;;19.70;50.30;;;;;;5116289;28;20054;-11
2022/11/13 08:55:11;;;;;;;1.20;1.10;;;19.70;50.30;;;;;;5116158;28;20146;-11
2022/11/13 08:57:58;;;;;;;1.30;1.20;;;19.70;50.30;;;;;;5116169;28;20130;-11
2022/11/13 09:00:43;;;;;;;1.00;1.00;;;19.70;50.40;;;;;;5115872;28;20415;-11
2022/11/13 09:03:27;;;;;;;1.40;1.30;;;19.70;50.30;;;;;;5116252;28;20073;-11
2022/11/13 09:06:11;;;;;;;1.23;1.10;;;19.80;50.30;;;;;;5116279;28;20050;-11
2022/11/13 09:08:55;;;;;;;1.30;1.20;;;19.70;50.30;;;;;;5115807;28;20406;-11
2022/11/13 09:11:39;;;;;;;1.27;1.17;;;19.70;50.30;;;;;;5116019;28;20073;-11
2022/11/13 09:14:26;;;;;;;1.20;1.10;;;19.70;50.30;;;;;;5115874;28;20585;-11
2022/11/13 09:17:11;;;;;;;1.25;1.15;;;19.70;50.30;;;;;;5115789;28;20055;-11
2022/11/13 09:19:56;;;;;;;1.50;1.40;;;19.70;50.30;;;;;;5116035;28;20097;-11
2022/11/13 09:22:40;;;;;;;1.02;1.00;;;19.70;50.30;;;;;;5115974;28;20101;-11
2022/11/13 09:25:26;;;;;;;1.30;1.20;;;19.70;50.30;;;;;;5113864;28;20058;-11
2022/11/13 09:28:10;;;;;;;1.42;1.30;;;19.70;50.40;;;;;;5115511;28;20054;-11
2022/11/13 09:30:54;;;;;;;1.30;1.20;;;19.70;50.40;;;;;;5115583;28;20054;-11
2022/11/13 09:33:38;;;;;;;1.38;1.27;;;19.70;50.50;;;;;;5114952;28;20066;-11
2022/11/13 09:36:23;;;;;;;1.25;1.15;;;19.70;51.00;;;;;;5115525;28;20058;-11
2022/11/13 09:39:07;;;;;;;1.00;1.00;;;19.70;50.50;;;;;;5115724;28;20135;-11
2022/11/13 09:42:00;;;;;;;1.50;1.40;;;19.60;50.50;;;;;;5115682;28;20139;-11
2022/11/13 09:45:00;;;;;;;1.55;1.23;;;19.60;50.50;;;;;;5115286;28;20086;-11
2022/11/13 09:47:45;;;;;;;1.30;1.20;;;19.60;50.50;;;;;;5114992;28;20104;-11
2022/11/13 09:50:31;;;;;;;1.00;1.00;;;19.60;50.50;;;;;;5115771;28;20062;-11
2022/11/13 09:53:15;;;;;;;1.50;1.40;;;19.60;50.50;;;;;;5115469;28;20050;-11
2022/11/13 09:56:17;;;;;;;1.50;1.20;;;19.60;50.50;;;;;;5115178;28;20059;-11
2022/11/13 09:59:26;;;;;;;1.20;1.10;;;19.60;50.50;;;;;;5114791;28;20092;-11
2022/11/13 10:02:44;;;;;;;1.05;1.00;;;19.60;50.40;;;;;;5115298;28;20153;-11
2022/11/13 10:05:44;;;;;;;1.58;1.48;;;19.60;51.00;;;;;;5115172;28;20058;-11
2022/11/13 10:09:13;;;;;;;1.38;1.27;;;19.60;50.60;;;;;;5114977;28;20063;-11
2022/11/13 10:12:03;;;;;;;1.27;1.20;;;19.60;50.50;;;;;;5111967;28;20134;-11
2022/11/13 10:14:51;;;;;;;1.40;1.30;;;19.60;50.50;;;;;;5115161;28;20609;-11
2022/11/13 10:17:41;;;;;;;1.35;1.23;;;19.60;50.50;;;;;;5114737;28;20185;-11
2022/11/13 10:20:38;;;;;;;1.40;1.30;;;19.60;50.50;;;;;;5115091;28;20054;-11
2022/11/13 10:23:31;;;;;;;1.67;1.45;;;19.70;50.50;;;;;;5114785;28;20093;-11
2022/11/13 10:26:18;;;;;;;1.40;1.30;;;19.70;50.40;;;;;;5115049;28;20057;-11
2022/11/13 10:29:12;;;;;;;1.30;1.20;;;19.70;50.40;;;;;;5114374;28;20061;-11
2022/11/13 10:31:57;;;;;;;1.40;1.30;;;19.70;50.40;;;;;;5114576;28;20188;-11
2022/11/13 10:34:46;;;;;;;1.25;1.15;;;19.70;50.40;;;;;;5114863;28;20073;-11
2022/11/13 10:37:47;;;;;;;1.45;1.35;;;19.70;50.40;;;;;;5114103;28;20082;-11
2022/11/13 10:40:37;;;;;;;0.90;0.90;;;19.60;50.30;;;;;;5099273;28;20399;-11
2022/11/13 10:43:24;;;;;;;1.40;1.30;;;19.70;50.40;;;;;;5114388;28;20050;-11
2022/11/13 10:46:21;;;;;;;2.10;1.52;;;19.70;50.40;;;;;;5114144;28;20120;-11
2022/11/13 10:49:20;;;;;;;1.35;1.25;;;19.60;50.30;;;;;;5114224;28;20063;-11
2022/11/13 10:52:20;;;;;;;1.42;1.33;;;19.60;50.30;;;;;;5114590;28;20054;-11
2022/11/13 10:55:38;;;;;;;1.30;1.20;;;19.70;50.30;;;;;;5114602;28;20075;-11
2022/11/13 10:58:22;;;;;;;1.30;1.20;;;19.70;50.40;;;;;;5071516;28;20139;-11
2022/11/13 11:01:21;;;;;;;1.38;1.27;;;19.70;50.40;;;;;;5114419;28;20172;-11
2022/11/13 11:04:13;;;;;;;1.38;1.27;;;19.70;50.30;;;;;;5114062;28;20507;-11
2022/11/13 11:07:11;;;;;;;1.40;1.30;;;19.70;50.40;;;;;;5113852;28;20059;-11
2022/11/13 11:09:56;;;;;;;1.10;1.00;;;19.60;50.30;;;;;;5113959;28;20109;-11
2022/11/13 11:12:41;;;;;;;1.20;1.05;;;19.60;50.30;;;;;;5114192;28;20495;-11
2022/11/13 11:15:27;;;;;;;1.50;1.40;;;19.70;50.30;;;;;;5113404;28;20461;-11
2022/11/13 11:18:12;;;;;;;1.25;1.15;;;19.70;50.30;;;;;;5114115;28;20066;-11
2022/11/13 11:21:00;;;;;;;1.23;1.13;;;19.70;50.30;;;;;;5114200;28;20066;-11
2022/11/13 11:23:47;;;;;;;1.30;1.20;;;19.70;50.30;;;;;;5113773;28;20055;-11
2022/11/13 11:26:58;;;;;;;1.63;1.52;;;19.70;50.30;;;;;;5113821;28;20559;-11
2022/11/13 11:29:59;;;;;;;1.30;1.20;;;19.70;50.40;;;;;;5113904;28;20454;-11
2022/11/13 11:33:14;;;;;;;1.60;1.50;;;19.70;50.30;;;;;;5113510;28;20101;-11
2022/11/13 11:36:23;;;;;;;1.60;1.45;;;19.60;50.30;;;;;;5113641;28;20612;-11
2022/11/13 11:39:25;;;;;;;1.50;1.40;;;19.60;50.30;;;;;;5113301;28;20059;-11
2022/11/13 11:42:37;;;;;;;1.70;1.38;;;19.70;50.30;;;;;;5113793;28;20086;-11
2022/11/13 11:45:52;;;;;;;1.67;1.58;;;19.70;50.40;;;;;;5112731;28;20188;-11
2022/11/13 11:48:36;;;;;;;1.25;1.15;;;19.60;50.30;;;;;;5113189;28;20456;-11
2022/11/13 11:51:28;;;;;;;1.50;1.40;;;19.70;50.30;;;;;;5113689;28;20660;-11
2022/11/13 11:54:25;;;;;;;1.20;1.10;;;19.70;50.30;;;;;;5113928;28;20084;-11
2022/11/13 11:57:22;;;;;;;1.55;1.45;;;19.70;50.30;;;;;;5112709;28;20104;-11
2022/11/13 12:00:13;;;;;;;1.40;1.30;;;19.70;50.20;;;;;;5112052;28;20101;-11
2022/11/13 12:03:10;;;;;;;1.50;1.40;;;19.70;50.30;;;;;;5113802;28;20058;-11
2022/11/13 12:06:17;;;;;;;1.45;1.35;;;19.70;50.20;;;;;;5113243;28;20524;-11
2022/11/13 12:09:23;;;;;;;1.40;1.30;;;19.70;50.20;;;;;;5113089;28;20063;-11
2022/11/13 12:12:28;;;;;;;1.38;1.27;;;19.70;50.20;;;;;;5113006;28;20142;-11
2022/11/13 12:15:34;;;;;;;1.95;1.63;;;19.70;50.10;;;;;;5113086;28;20407;-11
2022/11/13 12:18:36;;;;;;;1.45;1.33;;;19.70;50.20;;;;;;5112844;28;20116;-11
2022/11/13 12:21:35;;;;;;;1.60;1.50;;;19.70;50.20;;;;;;5110454;28;20093;-11
2022/11/13 12:24:53;;;;;;;1.60;1.50;;;19.70;50.20;;;;;;5113140;28;20493;-11
2022/11/13 12:27:54;;;;;;;1.25;1.15;;;19.60;50.20;;;;;;5113121;28;20557;-11
2022/11/13 12:30:51;;;;;;;1.52;1.42;;;19.60;50.30;;;;;;5112889;28;20058;-11
2022/11/13 12:34:05;;;;;;;1.50;1.40;;;19.60;50.30;;;;;;5113145;28;20101;-11
2022/11/13 12:36:52;;;;;;;1.45;1.35;;;19.60;50.30;;;;;;5108171;28;20506;-11
2022/11/13 12:39:42;;;;;;;1.58;1.48;;;19.60;50.30;;;;;;5112915;28;20121;-11
2022/11/13 12:42:34;;;;;;;1.38;1.25;;;19.60;50.30;;;;;;5112673;28;20070;-11
2022/11/13 12:45:29;;;;;;;1.25;1.20;;;19.60;50.30;;;;;;5113006;28;20121;-11
2022/11/13 12:48:20;;;;;;;1.52;1.42;;;19.60;50.30;;;;;;5112754;28;20058;-11
2022/11/13 12:51:12;;;;;;;1.77;1.40;;;19.60;50.30;;;;;;5112682;28;20505;-11
2022/11/13 12:53:56;;;;;;;1.50;1.35;;;19.60;50.20;;;;;;5112760;28;20075;-11
2022/11/13 12:56:40;;;;;;;1.60;1.50;;;19.60;50.30;;;;;;5112851;28;20104;-11
2022/11/13 12:59:51;;;;;;;2.60;1.80;;;19.60;50.20;;;;;;5112561;28;20090;-11
2022/11/13 13:03:14;;;;;;;1.80;1.55;;;19.60;50.20;;;;;;5112589;28;20054;-11
2022/11/13 13:06:18;;;;;;;1.50;1.40;;;19.60;50.80;;;;;;5112350;28;20097;-11
2022/11/13 13:09:09;;;;;;;1.45;1.35;;;19.60;50.30;;;;;;5114845;28;20080;-11
2022/11/13 13:12:03;;;;;;;1.90;1.60;;;19.60;50.30;;;;;;5115871;28;20070;-11
2022/11/13 13:15:24;;;;;;;1.30;1.20;;;19.60;50.30;;;;;;5116167;28;20104;-11
2022/11/13 13:18:31;;;;;;;1.52;1.42;;;19.60;50.30;;;;;;5115551;28;20463;-11
2022/11/13 13:21:18;;;;;;;1.40;1.30;;;19.60;50.30;;;;;;5115711;28;20059;-11
2022/11/13 13:24:08;;;;;;;1.60;1.50;;;19.60;50.30;;;;;;5115763;28;20113;-11
2022/11/13 13:26:52;;;;;;;1.27;1.17;;;19.60;50.30;;;;;;5115693;28;20081;-11
2022/11/13 13:29:39;;;;;;;1.77;1.23;;;19.60;50.30;;;;;;5113895;28;20138;-11
2022/11/13 13:32:47;;;;;;;1.30;1.20;;;19.60;50.30;;;;;;5115509;28;20411;-11
2022/11/13 13:35:59;;;;;;;1.98;1.75;;;19.60;50.30;;;;;;5116105;28;20100;-11
2022/11/13 13:38:59;;;;;;;1.40;1.30;;;19.60;50.30;;;;;;5115434;28;20054;-11
2022/11/13 13:42:03;;;;;;;1.38;1.27;;;19.60;50.30;;;;;;5115759;28;20077;-11
2022/11/13 13:45:24;;;;;;;1.40;1.30;;;19.60;50.30;;;;;;5115685;28;20070;-11
2022/11/13 13:48:10;;;;;;;1.40;1.30;;;19.60;50.30;;;;;;5115583;28;20140;-11
2022/11/13 13:50:57;;;;;;;1.63;1.52;;;19.60;50.30;;;;;;5113880;28;20073;-11
2022/11/13 13:53:41;;;;;;;1.30;1.20;;;19.60;50.30;;;;;;5115173;28;20058;-11
2022/11/13 13:56:26;;;;;;;1.50;1.40;;;19.60;50.30;;;;;;5115214;28;20112;-11
2022/11/13 13:59:34;;;;;;;1.40;1.30;;;19.60;50.30;;;;;;5115469;28;20070;-11
2022/11/13 14:02:24;;;;;;;1.17;1.17;;;19.60;50.30;;;;;;5115624;28;20042;-11
2022/11/13 14:05:34;;;;;;;1.50;1.40;;;19.50;50.30;;;;;;5114859;28;20062;-11
2022/11/13 14:08:23;;;;;;;1.42;1.30;;;19.50;50.30;;;;;;5115026;28;20138;-11
2022/11/13 14:11:28;;;;;;;1.60;1.50;;;19.60;50.40;;;;;;5115271;28;20062;-11
2022/11/13 14:14:20;;;;;;;1.35;1.25;;;19.50;50.30;;;;;;5115140;28;20489;-11
2022/11/13 14:17:05;;;;;;;1.50;1.40;;;19.50;50.30;;;;;;5115005;28;20057;-11
2022/11/13 14:19:51;;;;;;;1.55;1.45;;;19.50;50.30;;;;;;5115050;28;20490;-11
2022/11/13 14:22:35;;;;;;;1.65;1.55;;;19.50;50.40;;;;;;5115341;28;20054;-11
2022/11/13 14:25:25;;;;;;;1.60;1.50;;;19.50;50.40;;;;;;5114746;28;20050;-11
2022/11/13 14:28:25;;;;;;;1.77;1.67;;;19.50;50.40;;;;;;5114439;28;20113;-11
2022/11/13 14:31:11;;;;;;;1.55;1.40;;;19.50;50.30;;;;;;5114689;28;20065;-11
2022/11/13 14:34:00;;;;;;;1.92;1.60;;;19.50;50.30;;;;;;5114782;28;20074;-11
2022/11/13 14:36:47;;;;;;;1.85;1.60;;;19.50;50.40;;;;;;5114857;28;20069;-11
2022/11/13 14:39:33;;;;;;;1.55;1.40;;;19.50;50.40;;;;;;5114413;28;20121;-11
2022/11/13 14:42:37;;;;;;;1.50;1.40;;;19.50;50.40;;;;;;5114769;28;20157;-11